Accueil
METAR-TAF:

METAR-TAF

Aéroports :

Nîmes, France

Aéroport de Nîmes–Alès–Camargue–Cévennes. Garons

latitude: 43-45N, longitude: 004-25E, altitude: 94 m

Observation

Le bulletin a été fait il y a 35 minutes, à 23:30 UTC
Vent 1 kt de sud
Température 17°C
Humidité 63%
Pression 1019 hPa
Visibilité 10 km ou plus
pas de nuages en-dessous de 1500 mètres et pas de cumulonimbus.

METAR: LFTW 282330Z AUTO 18001KT CAVOK 17/10 Q1019

Heure: 02:05 (00:05 UTC)

Prévision

Le bulletin a été fait il y a 10 heures et 5 minutes, à 14:00 UTC
Prévision valable du 28 à 15 UTC au 29 à 15 UTC
Vent 10 kt de sud
Visibilité 10 km ou plus
pas de nuages en-dessous de 1500 mètres et pas de cumulonimbus.
Evoluant progressivement
du 28 à 20 UTC au 28 à 22 UTC
Vent 3 kt de direction variable
Evoluant progressivement
du 29 à 10 UTC au 29 à 12 UTC
Vent 10 kt de sud

TAF: LFTW 281400Z 2815/2915 17010KT CAVOK BECMG 2820/2822 VRB03KT BECMG 2910/2912 18010KT

Observations et prévisions météorologiques de plus de 4000 aéroports (messages METAR et TAF).

Les stations disponibles sont représentées par des disques jaunes et rouges sur la carte.

Passer la souris dessus pour voir le nom de la station.

Cliquer dessus pour voir les observations et prévisions météorologiques.

Pour changer de carte: cliquez sur les boutons verts avec une croix noire pour zoomer, sur le bouton vert avec un tiret pour effectuer un zoom arrière, ou sur les flèches vertes pour les cartes adjacentes.


METAR-TAF: